Time;durP1;ratioP1;P1;durP2;ratioP2;P2;SDS_P1;SDS_P2;PMS_P1;PMS_P2;Temp;Humidity;BMP_temperature;BMP_pressure;BME280_temperature;BME280_humidity;BME280_pressure;Samples;Min_cycle;Max_cycle;Signal;HPM_P1;HPM_P2
2021/11/25 00:02:23;;;;;;;223.93;102.55;;;;;;;-2.51;77.91;95002.34;1712958;83;20954;-57
2021/11/25 00:04:49;;;;;;;215.10;102.00;;;;;;;-2.52;77.84;94999.45;1689639;83;20979;-59
2021/11/25 00:07:16;;;;;;;216.27;97.20;;;;;;;-2.52;77.86;94999.45;1711951;83;21676;-56
2021/11/25 00:09:43;;;;;;;210.43;98.70;;;;;;;-2.54;77.81;94994.99;1708829;83;21497;-57
2021/11/25 00:12:11;;;;;;;229.18;103.67;;;;;;;-2.57;77.74;94988.98;1715669;81;21497;-57
2021/11/25 00:14:38;;;;;;;237.30;109.32;;;;;;;-2.59;77.85;94987.77;1725988;82;21121;-59
2021/11/25 00:17:05;;;;;;;257.98;110.03;;;;;;;-2.60;77.96;94986.22;1729588;82;21006;-57
2021/11/25 00:19:33;;;;;;;253.88;110.68;;;;;;;-2.58;78.22;94987.42;1718224;81;21096;-59
2021/11/25 00:22:00;;;;;;;240.40;101.38;;;;;;;-2.54;78.12;94990.95;1723846;82;20962;-58
2021/11/25 00:24:26;;;;;;;222.30;95.70;;;;;;;-2.51;78.09;94991.58;1722332;82;21070;-56
2021/11/25 00:26:53;;;;;;;194.00;90.03;;;;;;;-2.47;78.04;94994.34;1714520;82;21025;-58
2021/11/25 00:29:20;;;;;;;181.85;83.30;;;;;;;-2.39;78.00;94997.35;1725927;82;21576;-60
2021/11/25 00:31:47;;;;;;;411.70;150.50;;;;;;;-2.31;77.82;94989.03;1730048;82;21151;-59
2021/11/25 00:34:13;;;;;;;497.05;186.22;;;;;;;-2.24;77.60;94983.78;1728841;82;21059;-57
2021/11/25 00:36:41;;;;;;;404.83;158.45;;;;;;;-2.20;77.26;94985.96;1728797;82;21082;-57
2021/11/25 00:39:08;;;;;;;379.73;144.43;;;;;;;-2.17;77.10;94989.27;1720366;82;20999;-59
2021/11/25 00:41:34;;;;;;;303.77;126.07;;;;;;;-2.14;77.22;94988.55;1727187;82;21234;-58
2021/11/25 00:44:01;;;;;;;312.95;129.40;;;;;;;-2.07;76.97;94982.50;1694410;82;21137;-57
2021/11/25 00:46:28;;;;;;;312.95;127.95;;;;;;;-2.00;77.08;94983.97;1701370;82;21000;-58
2021/11/25 00:48:55;;;;;;;303.75;125.38;;;;;;;-1.91;76.72;94974.49;1694214;83;21024;-58
2021/11/25 00:51:21;;;;;;;286.98;123.28;;;;;;;-1.96;75.96;94973.44;1684397;83;21123;-58
2021/11/25 00:53:48;;;;;;;288.65;120.60;;;;;;;-2.01;75.96;94968.36;1713175;82;21192;-58
2021/11/25 00:56:15;;;;;;;260.43;112.72;;;;;;;-1.98;76.24;94966.87;1716563;82;21191;-57
2021/11/25 00:58:42;;;;;;;226.37;104.47;;;;;;;-1.97;75.76;94966.48;1712052;82;21560;-58
2021/11/25 01:01:08;;;;;;;232.20;100.92;;;;;;;-2.05;75.74;94968.09;1713157;82;21054;-58
2021/11/25 01:03:35;;;;;;;216.05;97.62;;;;;;;-2.10;75.72;94963.02;1713772;82;21156;-58
2021/11/25 01:06:03;;;;;;;206.55;94.30;;;;;;;-2.25;75.62;94959.33;1723094;82;21584;-58
2021/11/25 01:08:30;;;;;;;186.35;90.77;;;;;;;-2.37;75.73;94960.86;1701228;82;21172;-58
2021/11/25 01:10:56;;;;;;;195.00;89.90;;;;;;;-2.44;75.84;94957.27;1717452;82;21511;-57
2021/11/25 01:13:23;;;;;;;197.95;86.65;;;;;;;-2.47;76.10;94957.98;1717299;82;20976;-57
2021/11/25 01:15:50;;;;;;;194.40;89.35;;;;;;;-2.49;76.07;94954.30;1715119;82;21104;-57
2021/11/25 01:18:18;;;;;;;180.72;84.22;;;;;;;-2.52;76.23;94956.36;1722012;81;20926;-57
2021/11/25 01:20:47;;;;;;;189.18;85.75;;;;;;;-2.48;76.28;94949.11;1717717;82;21128;-57
2021/11/25 01:23:18;;;;;;;180.07;81.72;;;;;;;-2.54;76.34;94952.49;1715507;82;21228;-56
2021/11/25 01:25:45;;;;;;;199.30;83.70;;;;;;;-2.56;76.46;94951.49;1717388;82;21173;-57
2021/11/25 01:28:15;;;;;;;188.20;82.62;;;;;;;-2.62;76.49;94946.20;1725298;81;21129;-57
2021/11/25 01:30:48;;;;;;;174.45;79.35;;;;;;;-2.63;76.43;94944.66;1715872;82;21497;-58
2021/11/25 01:33:15;;;;;;;182.40;80.65;;;;;;;-2.62;76.54;94944.07;1723966;82;21697;-57
2021/11/25 01:35:42;;;;;;;176.18;80.12;;;;;;;-2.57;76.53;94938.38;1724052;81;21112;-57
2021/11/25 01:38:09;;;;;;;165.20;73.40;;;;;;;-2.52;76.49;94945.59;1719312;81;20999;-57
2021/11/25 01:40:37;;;;;;;173.13;81.78;;;;;;;-2.43;76.61;94929.20;1722168;81;21212;-57
2021/11/25 01:43:05;;;;;;;201.82;87.82;;;;;;;-2.38;76.31;94935.61;1728633;82;21651;-57
2021/11/25 01:45:34;;;;;;;214.32;92.50;;;;;;;-2.37;76.08;94937.96;1725451;82;21139;-58
2021/11/25 01:48:01;;;;;;;179.87;82.45;;;;;;;-2.41;75.97;94930.40;1720655;82;21228;-58
2021/11/25 01:50:28;;;;;;;225.28;91.50;;;;;;;-2.44;75.95;94929.78;1722603;82;21478;-56
2021/11/25 01:52:55;;;;;;;214.50;100.50;;;;;;;-2.51;75.74;94924.84;1723482;82;21149;-58
2021/11/25 01:55:22;;;;;;;197.32;91.20;;;;;;;-2.69;75.71;94923.77;1732751;82;21569;-57
2021/11/25 01:57:49;;;;;;;183.50;80.05;;;;;;;-2.81;76.18;94924.73;1728024;81;21167;-58
2021/11/25 02:00:34;;;;;;;178.35;79.45;;;;;;;-2.84;76.45;94926.00;1725655;81;21584;-57
2021/11/25 02:03:01;;;;;;;169.43;73.15;;;;;;;-2.86;76.27;94919.63;1725040;82;21577;-58
2021/11/25 02:05:27;;;;;;;143.15;66.42;;;;;;;-2.88;76.36;94916.52;1720011;82;21066;-58
2021/11/25 02:07:54;;;;;;;164.60;74.37;;;;;;;-2.84;76.47;94908.51;1721737;82;21061;-57
2021/11/25 02:10:22;;;;;;;155.30;70.62;;;;;;;-2.80;76.35;94918.77;1743991;82;21280;-57
2021/11/25 02:12:49;;;;;;;166.85;75.22;;;;;;;-2.74;76.45;94913.28;1731667;82;21011;-57
2021/11/25 02:15:16;;;;;;;179.45;78.75;;;;;;;-2.71;76.32;94905.27;1721639;81;20952;-58
2021/11/25 02:17:44;;;;;;;167.77;75.20;;;;;;;-2.67;76.51;94910.14;1716810;82;21002;-58
2021/11/25 02:20:12;;;;;;;177.40;78.65;;;;;;;-2.62;76.37;94915.80;1672709;83;21057;-57
2021/11/25 02:22:40;;;;;;;149.18;70.20;;;;;;;-2.64;76.10;94913.48;1673862;83;21226;-58
2021/11/25 02:25:12;;;;;;;128.35;59.03;;;;;;;-2.67;76.15;94916.87;1689513;83;22874;-57
2021/11/25 02:27:44;;;;;;;129.27;61.70;;;;;;;-2.73;75.82;94915.63;1707111;83;21027;-58
2021/11/25 02:30:11;;;;;;;136.97;59.98;;;;;;;-2.77;75.91;94919.39;1630716;86;21097;-57
2021/11/25 02:32:44;;;;;;;124.82;59.15;;;;;;;-2.75;76.14;94913.07;1643361;86;21032;-57
2021/11/25 02:35:18;;;;;;;135.45;61.63;;;;;;;-2.71;76.08;94911.24;1651854;87;21162;-56
2021/11/25 02:37:46;;;;;;;135.07;64.72;;;;;;;-2.73;75.93;94908.89;1649947;86;21200;-58
2021/11/25 02:40:27;;;;;;;143.10;61.90;;;;;;;-2.71;76.04;94903.17;1643014;86;21040;-57
2021/11/25 02:42:58;;;;;;;126.05;62.53;;;;;;;-2.72;75.91;94902.37;1633983;86;21085;-57
2021/11/25 02:45:26;;;;;;;146.40;66.77;;;;;;;-2.69;76.13;94900.89;1646361;85;21027;-57
2021/11/25 02:47:53;;;;;;;139.88;63.45;;;;;;;-2.72;75.86;94899.69;1670952;85;21600;-56
2021/11/25 02:50:21;;;;;;;130.20;61.10;;;;;;;-2.74;75.64;94902.52;1671678;85;21007;-57
2021/11/25 02:52:49;;;;;;;141.12;62.83;;;;;;;-2.86;75.52;94900.78;1661574;85;20991;-57
2021/11/25 02:55:17;;;;;;;131.65;59.00;;;;;;;-2.96;75.45;94895.22;1668809;85;21192;-57
2021/11/25 02:57:44;;;;;;;122.72;60.25;;;;;;;-3.03;75.58;94891.83;1651004;85;21160;-57
2021/11/25 03:00:25;;;;;;;128.57;61.08;;;;;;;-3.06;75.88;94891.20;1663532;85;21126;-59
2021/11/25 03:03:02;;;;;;;138.50;64.47;;;;;;;-2.99;75.99;94887.31;1654030;84;21700;-56
2021/11/25 03:05:29;;;;;;;138.55;61.20;;;;;;;-2.93;75.75;94888.56;1630302;87;21109;-56
2021/11/25 03:08:07;;;;;;;130.55;61.48;;;;;;;-2.89;75.77;94877.28;1684633;84;21079;-57
2021/11/25 03:10:48;;;;;;;120.75;58.92;;;;;;;-2.88;75.65;94876.14;1698208;83;21063;-57
2021/11/25 03:13:18;;;;;;;133.05;61.65;;;;;;;-2.90;75.45;94869.00;1696796;83;21093;-55
2021/11/25 03:15:45;;;;;;;131.30;61.77;;;;;;;-2.92;75.29;94874.52;1684250;84;21593;-56
2021/11/25 03:18:13;;;;;;;146.65;64.40;;;;;;;-2.95;75.22;94869.31;1689686;83;21578;-55
2021/11/25 03:20:46;;;;;;;144.55;66.17;;;;;;;-2.90;75.43;94870.34;1683301;83;21006;-57
2021/11/25 03:23:13;;;;;;;;;;;;;;;-2.86;75.11;94861.76;1696007;83;21067;-57
2021/11/25 03:25:40;;;;;;;170.45;72.05;;;;;;;-2.82;75.11;94862.62;1686133;83;21159;-58
2021/11/25 03:28:07;;;;;;;197.22;85.10;;;;;;;-2.80;75.09;94859.00;1697703;84;21111;-57
2021/11/25 03:30:34;;;;;;;176.57;76.95;;;;;;;-2.77;74.99;94858.27;1684192;83;20999;-57
2021/11/25 03:33:04;;;;;;;180.20;82.00;;;;;;;-2.78;74.79;94847.85;1692526;84;21066;-59
2021/11/25 03:35:32;;;;;;;191.50;81.28;;;;;;;-2.85;74.87;94845.81;1687044;84;21046;-56
2021/11/25 03:37:59;;;;;;;162.32;72.80;;;;;;;-2.85;75.20;94845.81;1700362;83;21102;-56
2021/11/25 03:40:26;;;;;;;178.47;74.22;;;;;;;-2.76;75.22;94840.19;1686088;83;21007;-57
2021/11/25 03:42:54;;;;;;;120.55;56.20;;;;;;;-2.67;75.04;94845.53;1697400;83;21489;-57
2021/11/25 03:45:20;;;;;;;122.53;57.03;;;;;;;-2.60;74.93;94837.58;1703931;81;21009;-58
2021/11/25 03:47:48;;;;;;;112.77;50.48;;;;;;;-2.58;74.69;94837.20;1708970;83;20950;-57
2021/11/25 03:50:15;;;;;;;138.60;61.35;;;;;;;-2.64;74.31;94838.11;1702667;83;21164;-57
2021/11/25 03:52:42;;;;;;;151.63;66.50;;;;;;;-2.75;74.31;94831.77;1712180;83;21049;-57
2021/11/25 03:55:11;;;;;;;137.82;66.40;;;;;;;-2.84;74.25;94825.84;1707278;83;21005;-57
2021/11/25 03:57:38;;;;;;;139.92;62.38;;;;;;;-2.87;74.41;94832.53;1709471;83;20977;-57
2021/11/25 04:00:09;;;;;;;144.15;62.50;;;;;;;-2.83;74.58;94822.01;1702087;83;20974;-57
2021/11/25 04:02:38;;;;;;;127.05;61.10;;;;;;;-2.73;74.69;94824.11;1705759;83;21178;-58
2021/11/25 04:05:06;;;;;;;136.40;64.07;;;;;;;-2.62;74.30;94828.30;1706292;83;21001;-57
2021/11/25 04:07:34;;;;;;;140.05;66.70;;;;;;;-2.55;74.22;94829.19;1710128;83;21101;-57
2021/11/25 04:10:01;;;;;;;171.77;74.95;;;;;;;-2.48;73.97;94823.14;1705787;83;21057;-57
2021/11/25 04:12:27;;;;;;;148.60;69.25;;;;;;;-2.43;73.93;94824.95;1705504;83;20965;-56
2021/11/25 04:14:55;;;;;;;151.40;70.62;;;;;;;-2.35;73.60;94831.98;1701448;83;22018;-57
2021/11/25 04:17:23;;;;;;;158.37;70.28;;;;;;;-2.29;73.32;94829.76;1702000;83;21073;-57
2021/11/25 04:19:51;;;;;;;133.47;65.55;;;;;;;-2.20;73.06;94828.91;1684302;83;21041;-58
2021/11/25 04:22:21;;;;;;;143.70;65.00;;;;;;;-2.16;72.68;94829.17;1707651;83;20956;-59
2021/11/25 04:24:52;;;;;;;127.15;62.53;;;;;;;-2.18;72.49;94826.06;1704116;83;21510;-58
2021/11/25 04:27:20;;;;;;;153.85;73.12;;;;;;;-2.24;72.22;94825.39;1706459;81;21166;-58
2021/11/25 04:30:50;;;;;;;179.57;79.42;;;;;;;-2.34;72.10;94811.98;1704425;82;20947;-58
2021/11/25 04:35:30;;;;;;;192.32;79.12;;;;;;;-2.66;71.99;94810.74;1720014;82;21578;-57
2021/11/25 04:38:07;;;;;;;154.55;69.22;;;;;;;-2.72;72.45;94808.16;1719610;82;21078;-57
2021/11/25 04:40:38;;;;;;;164.10;70.40;;;;;;;-2.71;72.55;94807.02;1727286;83;21212;-59
2021/11/25 04:43:06;;;;;;;151.87;68.15;;;;;;;-2.71;72.59;94808.37;1727924;82;20999;-59
2021/11/25 04:45:34;;;;;;;159.78;72.55;;;;;;;-2.71;72.75;94803.57;1715343;82;21058;-58
2021/11/25 04:48:01;;;;;;;163.45;71.42;;;;;;;-2.68;72.83;94806.30;1703915;83;21545;-56
2021/11/25 04:50:27;;;;;;;191.10;74.05;;;;;;;-2.56;73.30;94810.14;1697945;83;21042;-58
2021/11/25 04:52:54;;;;;;;168.90;68.92;;;;;;;-2.40;72.84;94797.84;1702554;83;21167;-57
2021/11/25 04:55:21;;;;;;;162.85;74.07;;;;;;;-2.29;72.46;94795.50;1702415;83;21100;-56
2021/11/25 04:57:48;;;;;;;162.25;70.28;;;;;;;-2.23;72.01;94796.75;1699879;83;21603;-57
2021/11/25 05:00:14;;;;;;;135.22;60.65;;;;;;;-2.24;71.49;94797.90;1703444;83;21049;-57
2021/11/25 05:02:41;;;;;;;133.35;58.17;;;;;;;-2.30;71.28;94794.54;1705910;83;21107;-58
2021/11/25 05:05:08;;;;;;;143.95;63.25;;;;;;;-2.39;71.15;94796.70;1689116;83;21558;-58
2021/11/25 05:07:35;;;;;;;154.70;66.95;;;;;;;-2.37;71.25;94799.25;1706116;83;20974;-58
2021/11/25 05:10:04;;;;;;;149.47;68.72;;;;;;;-2.29;71.32;94794.16;1711158;82;21430;-56
2021/11/25 05:12:31;;;;;;;149.65;66.90;;;;;;;-2.20;71.32;94789.29;1718382;82;21053;-57
2021/11/25 05:14:58;;;;;;;156.45;68.92;;;;;;;-2.14;70.89;94783.02;1719958;81;21216;-56
2021/11/25 05:17:24;;;;;;;175.05;72.35;;;;;;;-2.09;70.69;94788.86;1718521;82;21957;-56
2021/11/25 05:19:52;;;;;;;153.93;65.52;;;;;;;-2.01;70.52;94786.45;1726665;81;21073;-56
2021/11/25 05:22:20;;;;;;;191.32;77.97;;;;;;;-1.90;70.18;94786.02;1721599;81;21054;-55
2021/11/25 05:24:48;;;;;;;188.93;82.72;;;;;;;-1.83;69.72;94783.95;1717059;82;21665;-58
2021/11/25 05:27:15;;;;;;;167.47;78.00;;;;;;;-1.83;69.21;94775.86;1714396;82;21127;-57
2021/11/25 05:29:41;;;;;;;158.57;76.60;;;;;;;-1.96;68.96;94780.73;1713352;82;21234;-56
2021/11/25 05:32:09;;;;;;;171.50;76.50;;;;;;;-2.12;69.42;94788.81;1732445;81;21007;-57
2021/11/25 05:34:35;;;;;;;153.40;75.15;;;;;;;-2.15;69.76;94786.27;1725729;82;21001;-59
2021/11/25 05:37:03;;;;;;;158.68;77.72;;;;;;;-2.15;69.70;94786.27;1715276;82;21542;-59
2021/11/25 05:39:30;;;;;;;174.57;84.58;;;;;;;-2.19;69.38;94785.45;1716132;82;21485;-57
2021/11/25 05:41:57;;;;;;;193.55;83.85;;;;;;;-2.24;69.44;94781.73;1723269;82;21133;-58
2021/11/25 05:44:24;;;;;;;191.40;100.58;;;;;;;-2.24;69.52;94783.08;1710074;82;21216;-57
2021/11/25 05:46:50;;;;;;;185.65;91.22;;;;;;;-2.25;69.60;94778.84;1706659;83;21509;-59
2021/11/25 05:49:17;;;;;;;194.82;102.22;;;;;;;-2.28;69.42;94770.14;1708628;83;21070;-59
2021/11/25 05:51:44;;;;;;;200.18;97.60;;;;;;;-2.31;69.40;94783.56;1712732;82;21050;-59
2021/11/25 05:54:11;;;;;;;184.28;86.57;;;;;;;-2.31;69.69;94773.55;1721777;81;21146;-56
2021/11/25 05:56:39;;;;;;;145.53;68.62;;;;;;;-2.25;69.62;94780.74;1724575;81;21018;-59
2021/11/25 05:59:06;;;;;;;151.82;66.87;;;;;;;-2.22;69.47;94778.11;1702405;82;21041;-59
2021/11/25 06:01:32;;;;;;;111.52;55.38;;;;;;;-2.33;69.24;94785.84;1719863;82;21014;-58
2021/11/25 06:03:59;;;;;;;121.40;54.53;;;;;;;-2.54;69.36;94786.31;1718631;82;20974;-58
2021/11/25 06:06:26;;;;;;;116.25;53.30;;;;;;;-2.72;69.53;94783.17;1716352;82;22067;-57
2021/11/25 06:08:53;;;;;;;118.20;58.78;;;;;;;-2.85;69.93;94777.20;1719164;82;21485;-60
2021/11/25 06:11:20;;;;;;;151.22;62.00;;;;;;;-2.95;70.09;94779.17;1712109;82;20966;-59
2021/11/25 06:13:48;;;;;;;151.07;66.90;;;;;;;-3.04;70.53;94780.55;1707099;82;21553;-58
2021/11/25 06:16:15;;;;;;;123.07;63.10;;;;;;;-3.11;70.97;94773.14;1716183;82;21123;-59
2021/11/25 06:18:43;;;;;;;142.50;67.25;;;;;;;-3.12;71.35;94771.59;1712933;82;21136;-56
2021/11/25 06:21:09;;;;;;;124.42;59.93;;;;;;;-3.11;71.60;94778.52;1691239;81;22671;-57
2021/11/25 06:23:36;;;;;;;113.70;57.73;;;;;;;-2.97;72.17;94780.66;1692565;81;21002;-56
2021/11/25 06:26:03;;;;;;;105.75;54.90;;;;;;;-2.88;71.34;94785.99;1710805;81;21542;-59
2021/11/25 06:28:31;;;;;;;100.05;55.35;;;;;;;-2.87;71.26;94778.13;1699492;81;21023;-57
2021/11/25 06:30:58;;;;;;;125.92;65.83;;;;;;;-2.79;71.45;94779.80;1691270;82;21158;-58
2021/11/25 06:33:25;;;;;;;113.20;63.25;;;;;;;-2.59;71.62;94773.17;1699993;81;21038;-58
2021/11/25 06:35:51;;;;;;;170.07;85.38;;;;;;;-2.40;71.41;94772.27;1694304;81;21094;-58
2021/11/25 06:38:19;;;;;;;147.53;76.77;;;;;;;-2.24;70.92;94764.23;1704931;81;21712;-57
2021/11/25 06:40:47;;;;;;;180.87;89.05;;;;;;;-2.19;70.51;94759.86;1696964;81;21517;-57
2021/11/25 06:43:14;;;;;;;246.87;127.72;;;;;;;-2.21;70.55;94759.45;1698195;81;21683;-57
2021/11/25 06:45:42;;;;;;;213.28;116.93;;;;;;;-2.27;70.14;94756.88;1691421;81;21090;-58
2021/11/25 06:48:09;;;;;;;212.42;105.90;;;;;;;-2.29;70.25;94755.09;1687807;81;21146;-58
2021/11/25 06:50:36;;;;;;;224.52;117.13;;;;;;;-2.30;70.20;94757.59;1673659;82;22242;-58
2021/11/25 06:53:03;;;;;;;174.35;98.33;;;;;;;-2.37;70.24;94748.64;1695803;81;20997;-59
2021/11/25 06:55:30;;;;;;;205.32;103.05;;;;;;;-2.36;70.90;94749.63;1697965;81;21089;-59
2021/11/25 06:57:56;;;;;;;216.10;112.00;;;;;;;-2.28;71.10;94748.59;1680590;81;21422;-59
2021/11/25 07:00:26;;;;;;;203.75;101.87;;;;;;;-2.20;71.11;94743.48;1701808;81;21134;-58
2021/11/25 07:02:54;;;;;;;262.25;125.35;;;;;;;-2.16;71.32;94746.23;1687955;81;21029;-58
2021/11/25 07:05:23;;;;;;;224.25;111.12;;;;;;;-2.10;71.69;94738.78;1680966;81;21041;-58
2021/11/25 07:07:51;;;;;;;147.72;79.45;;;;;;;-2.02;71.67;94741.78;1687966;81;21142;-56
2021/11/25 07:10:18;;;;;;;186.88;102.87;;;;;;;-1.92;71.90;94739.00;1681540;81;21097;-59
2021/11/25 07:12:46;;;;;;;193.45;107.17;;;;;;;-1.85;71.98;94741.20;1682106;81;21032;-58
2021/11/25 07:15:14;;;;;;;225.80;119.15;;;;;;;-1.70;71.83;94734.83;1697004;81;21473;-55
2021/11/25 07:17:44;;;;;;;236.25;132.22;;;;;;;-1.69;71.43;94733.09;1671932;82;21705;-56
2021/11/25 07:20:13;;;;;;;248.43;135.88;;;;;;;-1.67;71.84;94730.80;1691088;81;21193;-57
2021/11/25 07:22:40;;;;;;;202.13;106.92;;;;;;;-1.52;71.77;94723.05;1701552;81;21125;-58
2021/11/25 07:25:08;;;;;;;173.38;93.20;;;;;;;-1.40;71.85;94717.95;1700248;81;22148;-58
2021/11/25 07:27:38;;;;;;;156.90;83.37;;;;;;;-1.19;72.04;94719.48;1692888;81;21003;-57
2021/11/25 07:30:06;;;;;;;164.75;87.35;;;;;;;-1.00;71.63;94716.58;1685944;81;21110;-60
2021/11/25 07:32:34;;;;;;;128.75;71.65;;;;;;;-0.93;71.23;94710.63;1698353;81;21550;-60
2021/11/25 07:35:00;;;;;;;116.05;60.65;;;;;;;-0.87;71.22;94708.36;1691270;81;21035;-57
2021/11/25 07:37:27;;;;;;;103.00;56.35;;;;;;;-0.76;71.12;94707.87;1696800;81;22009;-60
2021/11/25 07:39:54;;;;;;;107.47;56.80;;;;;;;-0.71;70.96;94702.10;1685383;82;21135;-59
2021/11/25 07:42:21;;;;;;;96.65;53.42;;;;;;;-0.71;70.82;94700.19;1697906;81;22201;-60
2021/11/25 07:44:49;;;;;;;106.32;56.28;;;;;;;-0.71;70.77;94695.35;1686129;81;21072;-56
2021/11/25 07:47:20;;;;;;;104.83;55.90;;;;;;;-0.64;70.88;94688.06;1680019;81;21078;-57
2021/11/25 07:49:44;;;;;;;121.75;70.70;;;;;;;-0.48;71.04;94680.44;1695254;81;22431;-58
2021/11/25 07:52:11;;;;;;;159.18;82.90;;;;;;;-0.25;71.28;94677.45;1697268;81;21014;-57
2021/11/25 07:54:38;;;;;;;94.10;56.45;;;;;;;-0.01;70.99;94674.82;1692073;81;21103;-52
2021/11/25 07:57:08;;;;;;;99.13;58.55;;;;;;;0.09;70.59;94674.88;1701040;81;21150;-52
2021/11/25 07:59:35;;;;;;;97.78;58.02;;;;;;;0.15;70.54;94670.64;1685034;81;20974;-56
2021/11/25 08:02:04;;;;;;;88.55;54.23;;;;;;;0.19;70.62;94676.06;1683982;81;22118;-61
2021/11/25 08:04:35;;;;;;;97.17;58.50;;;;;;;0.23;70.80;94666.02;1691332;81;21064;-59
2021/11/25 08:07:08;;;;;;;164.03;85.07;;;;;;;0.34;70.98;94664.09;1680308;81;21000;-58
2021/11/25 08:09:38;;;;;;;181.55;91.55;;;;;;;0.47;70.96;94657.95;1684487;81;21130;-61
2021/11/25 08:12:08;;;;;;;113.77;63.10;;;;;;;0.72;71.17;94658.73;1692890;81;22000;-57
2021/11/25 08:14:40;;;;;;;66.07;40.95;;;;;;;0.99;70.67;94657.16;1702127;81;21096;-56
2021/11/25 08:17:10;;;;;;;64.22;40.38;;;;;;;1.07;70.08;94651.94;1669939;82;21051;-61
2021/11/25 08:19:42;;;;;;;;;;;;;;;1.05;69.79;94655.63;1699886;81;22219;-58
2021/11/25 08:22:15;;;;;;;58.42;36.95;;;;;;;0.99;69.78;94643.62;1658758;83;21138;-59
2021/11/25 08:24:42;;;;;;;55.55;34.75;;;;;;;1.01;69.90;94640.53;1652598;83;21141;-56
2021/11/25 08:27:14;;;;;;;62.95;39.55;;;;;;;1.13;69.87;94636.83;1662241;83;21147;-59
2021/11/25 08:29:42;;;;;;;96.28;63.08;;;;;;;1.25;69.65;94641.06;1647653;83;21027;-57
2021/11/25 08:32:11;;;;;;;82.42;50.60;;;;;;;1.33;69.38;94633.88;1652371;83;21120;-55
2021/11/25 08:34:37;;;;;;;72.60;45.30;;;;;;;1.51;69.28;94623.02;1659861;83;21180;-58
2021/11/25 08:37:04;;;;;;;82.37;45.67;;;;;;;1.72;68.74;94618.27;1621646;84;21071;-56
2021/11/25 08:39:33;;;;;;;72.65;40.40;;;;;;;1.90;68.65;94610.25;1647346;84;21618;-56
2021/11/25 08:42:00;;;;;;;72.40;40.98;;;;;;;2.12;68.99;94613.63;1645532;85;21098;-61
2021/11/25 08:44:26;;;;;;;66.82;40.65;;;;;;;2.37;69.10;94602.03;1665623;83;21014;-56
2021/11/25 08:46:53;;;;;;;101.87;61.58;;;;;;;2.66;68.97;94602.77;1690134;81;21151;-61
2021/11/25 08:49:20;;;;;;;88.52;53.38;;;;;;;2.91;68.43;94606.05;1674072;81;21093;-59
2021/11/25 08:51:48;;;;;;;63.28;41.00;;;;;;;3.22;67.85;94593.36;1671688;81;21007;-56
2021/11/25 08:54:15;;;;;;;68.02;40.05;;;;;;;3.61;67.30;94596.60;1691081;81;21042;-55
2021/11/25 08:56:42;;;;;;;64.27;37.85;;;;;;;3.85;66.46;94586.61;1686791;81;21969;-57
2021/11/25 08:59:08;;;;;;;51.13;34.43;;;;;;;4.02;65.70;94583.64;1690759;82;21107;-55
2021/11/25 09:01:36;;;;;;;42.20;28.47;;;;;;;4.15;65.08;94584.64;1687682;81;21045;-56
2021/11/25 09:04:06;;;;;;;33.25;22.95;;;;;;;4.15;64.99;94581.92;1693264;81;21084;-59
2021/11/25 09:06:35;;;;;;;36.73;25.00;;;;;;;4.20;64.80;94577.97;1682229;81;21141;-59
2021/11/25 09:09:07;;;;;;;42.43;27.27;;;;;;;4.33;64.74;94575.63;1689443;81;21078;-59
2021/11/25 09:11:35;;;;;;;41.18;26.80;;;;;;;4.49;64.24;94565.47;1689181;81;21075;-56
2021/11/25 09:14:03;;;;;;;43.38;29.82;;;;;;;4.76;63.68;94564.25;1699181;81;21014;-60
2021/11/25 09:16:33;;;;;;;55.25;36.15;;;;;;;5.06;62.93;94560.05;1692350;81;21878;-56
2021/11/25 09:19:00;;;;;;;65.40;39.30;;;;;;;5.21;62.12;94551.02;1692684;81;21544;-58
2021/11/25 09:21:29;;;;;;;74.97;43.63;;;;;;;5.35;61.89;94542.75;1691232;81;21062;-55
2021/11/25 09:23:58;;;;;;;50.03;28.90;;;;;;;5.69;62.19;94539.16;1693427;81;21091;-56
2021/11/25 09:26:25;;;;;;;32.90;19.98;;;;;;;6.09;60.31;94550.23;1687748;81;20986;-55
2021/11/25 09:28:58;;;;;;;22.00;17.57;;;;;;;6.32;59.29;94542.52;1696965;81;21019;-57
2021/11/25 09:31:29;;;;;;;24.45;16.77;;;;;;;6.38;58.81;94533.98;1687585;81;21712;-58
2021/11/25 09:33:56;;;;;;;23.85;17.32;;;;;;;6.75;58.65;94524.70;1689269;82;21875;-58
2021/11/25 09:36:23;;;;;;;31.52;20.95;;;;;;;7.17;57.48;94526.36;1693101;81;21407;-57
2021/11/25 09:38:50;;;;;;;39.00;23.10;;;;;;;7.39;57.73;94520.49;1690466;81;22423;-57
2021/11/25 09:41:17;;;;;;;41.58;23.25;;;;;;;7.49;57.54;94518.83;1687913;81;21134;-57
2021/11/25 09:43:43;;;;;;;40.92;21.77;;;;;;;7.59;57.09;94515.05;1687638;81;21152;-56
2021/11/25 09:46:10;;;;;;;40.23;22.93;;;;;;;7.76;56.76;94497.36;1663883;82;21050;-56
2021/11/25 09:48:38;;;;;;;53.73;28.00;;;;;;;7.84;56.42;94493.20;1685552;81;21721;-54
2021/11/25 09:51:06;;;;;;;51.13;29.70;;;;;;;7.91;56.06;94488.88;1693925;81;21031;-57
2021/11/25 09:53:33;;;;;;;37.85;20.52;;;;;;;7.88;55.64;94485.64;1684084;82;21129;-60
2021/11/25 09:56:00;;;;;;;35.08;19.57;;;;;;;7.94;55.58;94479.03;1691354;81;21126;-62
2021/11/25 09:58:30;;;;;;;29.50;16.10;;;;;;;8.03;55.09;94477.18;1673417;81;21018;-57
2021/11/25 10:01:04;;;;;;;26.40;13.55;;;;;;;8.18;54.63;94472.84;1692720;81;21144;-64
2021/11/25 10:03:32;;;;;;;21.10;12.25;;;;;;;8.33;54.35;94465.72;1687754;81;21758;-58
2021/11/25 10:06:00;;;;;;;16.42;11.10;;;;;;;8.34;54.44;94466.47;1696350;81;20986;-58
2021/11/25 10:08:44;;;;;;;17.77;13.50;;;;;;;8.37;54.36;94456.00;1696268;81;21137;-59
2021/11/25 10:11:18;;;;;;;26.48;17.62;;;;;;;8.66;54.10;94451.90;1699418;81;22092;-61
2021/11/25 10:13:55;;;;;;;20.57;13.18;;;;;;;9.07;53.01;94453.08;1692330;81;21758;-58
2021/11/25 10:16:28;;;;;;;21.10;14.53;;;;;;;9.54;52.45;94453.14;1689846;81;21041;-57
2021/11/25 10:18:58;;;;;;;;;;;;;;;10.01;51.08;94446.11;1688719;81;22236;-58
2021/11/25 10:21:27;;;;;;;21.35;12.40;;;;;;;10.26;50.30;94445.94;1685535;82;20178;-57
2021/11/25 10:23:55;;;;;;;14.05;10.60;;;;;;;10.39;50.10;94442.48;1685987;81;21047;-59
2021/11/25 10:26:27;;;;;;;22.15;10.80;;;;;;;10.60;49.38;94441.04;1701592;81;21136;-58
2021/11/25 10:29:00;;;;;;;12.33;8.53;;;;;;;10.79;48.82;94435.11;1702794;81;21069;-58
2021/11/25 10:31:35;;;;;;;12.45;8.83;;;;;;;10.99;48.48;94425.06;1691958;81;21427;-58
2021/11/25 10:34:10;;;;;;;15.90;8.43;;;;;;;11.21;48.03;94414.05;1691218;81;22387;-56
2021/11/25 10:36:55;;;;;;;;;;;;;;;;;;;;;
2021/11/25 10:42:18;;;;;;;19.75;10.72;;;;;;;12.25;45.15;94407.77;1697971;81;21068;-55
2021/11/25 10:44:50;;;;;;;14.75;9.78;;;;;;;12.49;45.12;94398.91;1696824;81;21032;-58
2021/11/25 10:47:22;;;;;;;18.13;8.37;;;;;;;12.59;44.77;94394.89;1693336;81;21851;-59
2021/11/25 10:49:58;;;;;;;12.53;8.50;;;;;;;12.75;44.45;94393.12;1695786;81;21598;-57
2021/11/25 10:52:39;;;;;;;9.75;7.05;;;;;;;13.04;43.97;94384.36;1688845;81;21167;-57
2021/11/25 10:55:19;;;;;;;13.10;7.40;;;;;;;13.31;43.04;94384.16;1693186;81;20914;-58
2021/11/25 10:57:57;;;;;;;15.83;7.53;;;;;;;13.44;42.44;94372.84;1699924;81;22214;-59
2021/11/25 11:00:34;;;;;;;14.83;8.55;;;;;;;13.85;41.53;94369.06;1691137;81;21094;-58
2021/11/25 11:03:14;;;;;;;13.43;8.58;;;;;;;14.24;41.05;94363.57;1691651;81;22270;-58
2021/11/25 11:05:57;;;;;;;12.45;9.03;;;;;;;14.43;40.34;94366.39;1690935;81;22642;-57
2021/11/25 11:08:25;;;;;;;12.07;8.55;;;;;;;14.53;40.54;94353.97;1691484;81;21546;-56
2021/11/25 11:10:57;;;;;;;16.82;9.83;;;;;;;14.35;40.39;94356.83;1668834;81;22324;-58
2021/11/25 11:16:09;;;;;;;19.07;8.78;;;;;;;14.14;40.88;94335.86;1707202;81;21109;-56
2021/11/25 11:18:53;;;;;;;16.48;7.67;;;;;;;14.32;40.23;94335.66;1704539;81;22360;-59
2021/11/25 11:21:43;;;;;;;27.35;10.03;;;;;;;14.75;39.24;94332.13;1702207;81;21466;-59
2021/11/25 11:24:23;;;;;;;25.92;10.70;;;;;;;15.30;38.52;94324.52;1691414;81;21033;-60
2021/11/25 11:26:55;;;;;;;23.45;10.28;;;;;;;15.91;37.76;94312.00;1690404;81;21033;-59
2021/11/25 11:29:29;;;;;;;36.25;11.35;;;;;;;16.60;36.97;94307.36;1689737;81;21022;-59
2021/11/25 11:31:58;;;;;;;46.65;12.35;;;;;;;17.19;35.97;94302.59;1695536;81;22408;-59